Time;durP1;ratioP1;P1;durP2;ratioP2;P2;SDS_P1;SDS_P2;PMS_P1;PMS_P2;Temp;Humidity;BMP_temperature;BMP_pressure;BME280_temperature;BME280_humidity;BME280_pressure;Samples;Min_cycle;Max_cycle;Signal;HPM_P1;HPM_P2
2021/10/24 00:00:45;;;;;;;5.93;3.78;;;;;;;;;;5016159;28;20263;-46
2021/10/24 00:03:11;;;;;;;5.70;3.50;;;;;;;;;;5016319;28;20180;-46
2021/10/24 00:05:38;;;;;;;4.85;3.55;;;;;;;;;;5026393;28;20196;-46
2021/10/24 00:08:04;;;;;;;5.72;3.65;;;;;;;;;;5022178;28;20204;-46
2021/10/24 00:10:30;;;;;;;5.80;3.60;;;;;;;;;;5023543;28;20516;-46
2021/10/24 00:12:56;;;;;;;5.90;3.28;;;;;;;;;;5021420;28;20207;-46
2021/10/24 00:15:22;;;;;;;6.43;3.75;;;;;;;;;;5015206;28;20208;-46
2021/10/24 00:17:48;;;;;;;6.22;3.95;;;;;;;;;;5029836;28;20578;-46
2021/10/24 00:20:14;;;;;;;4.55;3.20;;;;;;;;;;5030273;28;20181;-46
2021/10/24 00:22:40;;;;;;;5.38;3.40;;;;;;;;;;5015295;28;20302;-46
2021/10/24 00:25:06;;;;;;;4.93;3.40;;;;;;;;;;5019963;28;20204;-51
2021/10/24 00:27:33;;;;;;;5.35;3.40;;;;;;;;;;5032733;28;20311;-46
2021/10/24 00:29:59;;;;;;;4.05;3.08;;;;;;;;;;5033774;28;20696;-46
2021/10/24 00:32:25;;;;;;;4.25;3.20;;;;;;;;;;5029024;28;20195;-46
2021/10/24 00:34:51;;;;;;;4.03;3.42;;;;;;;;;;5015692;28;20180;-46
2021/10/24 00:37:17;;;;;;;5.25;2.95;;;;;;;;;;5033835;28;20266;-46
2021/10/24 00:39:43;;;;;;;5.00;3.00;;;;;;;;;;5034524;28;20666;-46
2021/10/24 00:42:09;;;;;;;5.18;3.17;;;;;;;;;;5016353;28;20223;-46
2021/10/24 00:44:35;;;;;;;3.40;2.78;;;;;;;;;;5015605;28;20191;-46
2021/10/24 00:47:02;;;;;;;5.25;3.22;;;;;;;;;;5030110;28;20242;-46
2021/10/24 00:49:28;;;;;;;5.00;3.25;;;;;;;;;;5033004;28;20176;-46
2021/10/24 00:51:55;;;;;;;3.38;2.60;;;;;;;;;;5031551;28;20183;-46
2021/10/24 00:54:22;;;;;;;4.97;2.92;;;;;;;;;;5014841;28;20189;-46
2021/10/24 00:56:49;;;;;;;4.28;2.95;;;;;;;;;;5030735;28;20271;-46
2021/10/24 00:59:16;;;;;;;4.47;3.30;;;;;;;;;;5014725;28;20199;-46
2021/10/24 01:01:42;;;;;;;4.80;2.83;;;;;;;;;;5015514;28;20204;-46
2021/10/24 01:04:08;;;;;;;4.18;2.50;;;;;;;;;;5031666;28;20180;-46
2021/10/24 01:06:35;;;;;;;3.58;2.60;;;;;;;;;;5018212;28;20476;-46
2021/10/24 01:09:01;;;;;;;4.30;2.92;;;;;;;;;;5014293;28;20165;-46
2021/10/24 01:11:28;;;;;;;4.72;2.72;;;;;;;;;;5014722;28;20246;-46
2021/10/24 01:13:55;;;;;;;3.22;2.58;;;;;;;;;;5014197;28;20251;-47
2021/10/24 01:16:21;;;;;;;3.58;2.70;;;;;;;;;;5022781;28;20184;-46
2021/10/24 01:18:47;;;;;;;2.53;2.30;;;;;;;;;;5026786;28;20444;-46
2021/10/24 01:21:20;;;;;;;5.53;2.78;;;;;;;;;;5031149;28;20618;-47
2021/10/24 01:23:46;;;;;;;3.28;2.55;;;;;;;;;;5016651;28;20208;-46
2021/10/24 01:26:12;;;;;;;4.28;2.72;;;;;;;;;;5022048;28;20504;-46
2021/10/24 01:28:38;;;;;;;3.35;2.53;;;;;;;;;;5020917;28;20176;-46
2021/10/24 01:31:04;;;;;;;3.75;2.90;;;;;;;;;;5038075;28;20168;-46
2021/10/24 01:33:31;;;;;;;2.72;2.38;;;;;;;;;;5023305;28;20195;-46
2021/10/24 01:35:58;;;;;;;4.00;2.30;;;;;;;;;;5027118;28;20169;-47
2021/10/24 01:38:25;;;;;;;3.40;2.70;;;;;;;;;;5019301;28;20173;-46
2021/10/24 01:40:52;;;;;;;3.17;2.58;;;;;;;;;;5031368;28;20532;-46
2021/10/24 01:43:22;;;;;;;3.53;2.40;;;;;;;;;;5030144;28;20195;-46
2021/10/24 01:45:48;;;;;;;3.75;2.55;;;;;;;;;;5033809;28;20164;-46
2021/10/24 01:48:16;;;;;;;3.08;2.45;;;;;;;;;;5029764;28;20252;-46
2021/10/24 01:50:42;;;;;;;4.13;2.70;;;;;;;;;;5023879;28;20555;-46
2021/10/24 01:53:08;;;;;;;3.28;2.33;;;;;;;;;;5019557;28;20192;-46
2021/10/24 01:55:34;;;;;;;2.83;2.30;;;;;;;;;;5020462;28;20311;-46
2021/10/24 01:58:01;;;;;;;2.58;2.30;;;;;;;;;;5022295;28;20184;-46
2021/10/24 02:00:27;;;;;;;3.40;2.45;;;;;;;;;;5034886;28;20200;-46
2021/10/24 02:02:53;;;;;;;2.60;2.15;;;;;;;;;;5029824;28;20259;-46
2021/10/24 02:05:20;;;;;;;2.47;2.28;;;;;;;;;;5032081;28;20179;-46
2021/10/24 02:07:46;;;;;;;2.50;1.92;;;;;;;;;;5027241;28;20220;-46
2021/10/24 02:10:13;;;;;;;2.47;2.05;;;;;;;;;;5024721;28;20180;-46
2021/10/24 02:12:39;;;;;;;2.90;2.25;;;;;;;;;;5024890;28;20263;-46
2021/10/24 02:15:07;;;;;;;2.45;1.98;;;;;;;;;;5036437;28;20582;-46
2021/10/24 02:17:33;;;;;;;2.55;2.08;;;;;;;;;;5035286;28;20188;-46
2021/10/24 02:19:59;;;;;;;2.22;2.03;;;;;;;;;;5018761;28;20264;-46
2021/10/24 02:22:26;;;;;;;2.72;1.98;;;;;;;;;;5030342;28;20199;-46
2021/10/24 02:24:52;;;;;;;3.25;2.25;;;;;;;;;;5036207;28;20180;-46
2021/10/24 02:27:18;;;;;;;3.03;2.00;;;;;;;;;;5032895;28;20211;-46
2021/10/24 02:29:45;;;;;;;3.75;1.90;;;;;;;;;;5026720;28;20579;-46
2021/10/24 02:32:11;;;;;;;2.20;1.90;;;;;;;;;;5033581;28;20169;-46
2021/10/24 02:34:37;;;;;;;3.47;2.00;;;;;;;;;;5034183;28;20172;-46
2021/10/24 02:37:04;;;;;;;1.95;1.58;;;;;;;;;;5027862;28;20176;-46
2021/10/24 02:39:30;;;;;;;3.75;2.22;;;;;;;;;;5025829;28;20245;-46
2021/10/24 02:41:56;;;;;;;2.25;1.90;;;;;;;;;;5026655;28;20192;-46
2021/10/24 02:44:22;;;;;;;2.25;1.88;;;;;;;;;;5016332;28;20466;-46
2021/10/24 02:46:49;;;;;;;2.00;1.80;;;;;;;;;;5020666;28;20211;-46
2021/10/24 02:49:15;;;;;;;4.32;2.38;;;;;;;;;;5031841;28;20195;-49
2021/10/24 02:51:41;;;;;;;2.65;1.88;;;;;;;;;;5035484;28;20200;-46
2021/10/24 02:54:07;;;;;;;2.00;1.77;;;;;;;;;;5024782;28;20183;-47
2021/10/24 02:56:33;;;;;;;2.00;1.80;;;;;;;;;;5026046;28;20414;-46
2021/10/24 02:59:00;;;;;;;2.88;1.60;;;;;;;;;;5024715;28;20207;-46
2021/10/24 03:01:26;;;;;;;2.17;1.92;;;;;;;;;;5021999;28;20207;-46
2021/10/24 03:03:51;;;;;;;1.88;1.77;;;;;;;;;;5026449;28;20307;-46
2021/10/24 03:06:18;;;;;;;1.85;1.73;;;;;;;;;;5023391;28;20290;-46
2021/10/24 03:08:43;;;;;;;2.00;1.85;;;;;;;;;;5019922;28;20621;-46
2021/10/24 03:11:10;;;;;;;2.05;1.85;;;;;;;;;;5032333;28;20283;-46
2021/10/24 03:13:36;;;;;;;1.75;1.60;;;;;;;;;;5035881;28;20419;-46
2021/10/24 03:16:02;;;;;;;1.90;1.70;;;;;;;;;;5027667;28;20248;-46
2021/10/24 03:18:28;;;;;;;2.13;1.73;;;;;;;;;;5031274;28;20554;-46
2021/10/24 03:20:54;;;;;;;1.75;1.48;;;;;;;;;;5022695;28;20208;-46
2021/10/24 03:23:20;;;;;;;2.28;1.85;;;;;;;;;;5015927;28;20444;-46
2021/10/24 03:25:46;;;;;;;1.90;1.60;;;;;;;;;;5020347;28;20255;-46
2021/10/24 03:28:12;;;;;;;2.22;1.92;;;;;;;;;;5027487;28;20593;-46
2021/10/24 03:30:39;;;;;;;1.77;1.67;;;;;;;;;;5034167;28;20199;-46
2021/10/24 03:33:05;;;;;;;2.20;1.70;;;;;;;;;;5030844;28;20186;-46
2021/10/24 03:35:31;;;;;;;1.60;1.50;;;;;;;;;;5026323;28;20204;-46
2021/10/24 03:37:57;;;;;;;1.95;1.65;;;;;;;;;;5016098;28;20235;-46
2021/10/24 03:40:23;;;;;;;1.40;1.30;;;;;;;;;;5024467;28;20186;-46
2021/10/24 03:42:49;;;;;;;1.40;1.30;;;;;;;;;;5026307;28;20267;-46
2021/10/24 03:45:15;;;;;;;1.90;1.75;;;;;;;;;;5027385;28;20263;-46
2021/10/24 03:47:41;;;;;;;1.83;1.58;;;;;;;;;;5028352;28;20576;-46
2021/10/24 03:50:07;;;;;;;1.90;1.63;;;;;;;;;;5028239;28;20184;-46
2021/10/24 03:52:33;;;;;;;1.58;1.48;;;;;;;;;;5015886;28;20180;-46
2021/10/24 03:54:59;;;;;;;1.52;1.27;;;;;;;;;;5023190;28;20531;-46
2021/10/24 03:57:25;;;;;;;1.88;1.55;;;;;;;;;;5029100;28;20176;-46
2021/10/24 03:59:51;;;;;;;1.65;1.52;;;;;;;;;;5019306;28;20179;-46
2021/10/24 04:02:18;;;;;;;1.55;1.45;;;;;;;;;;5030355;28;20208;-46
2021/10/24 04:04:44;;;;;;;1.75;1.60;;;;;;;;;;5021838;28;20180;-46
2021/10/24 04:07:13;;;;;;;1.70;1.42;;;;;;;;;;5015438;28;20220;-46
2021/10/24 04:09:39;;;;;;;1.98;1.58;;;;;;;;;;5018723;28;20172;-46
2021/10/24 04:12:05;;;;;;;2.03;1.42;;;;;;;;;;5018190;28;20453;-46
2021/10/24 04:14:31;;;;;;;1.67;1.52;;;;;;;;;;5017607;28;20179;-46
2021/10/24 04:16:57;;;;;;;2.42;1.40;;;;;;;;;;5016498;28;20196;-47
2021/10/24 04:19:24;;;;;;;1.38;1.27;;;;;;;;;;5035029;28;20168;-46
2021/10/24 04:21:50;;;;;;;1.50;1.40;;;;;;;;;;5015563;28;20244;-46
2021/10/24 04:24:16;;;;;;;2.08;1.60;;;;;;;;;;5034228;28;20180;-46
2021/10/24 04:26:42;;;;;;;1.67;1.45;;;;;;;;;;5019025;28;20215;-46
2021/10/24 04:29:08;;;;;;;1.98;1.58;;;;;;;;;;5032408;28;20454;-46
2021/10/24 04:31:33;;;;;;;1.40;1.30;;;;;;;;;;5017683;28;20182;-46
2021/10/24 04:34:00;;;;;;;3.40;1.30;;;;;;;;;;5032841;28;20424;-46
2021/10/24 04:36:26;;;;;;;1.83;1.40;;;;;;;;;;5029133;28;20234;-46
2021/10/24 04:38:52;;;;;;;1.20;1.10;;;;;;;;;;5016556;28;20489;-47
2021/10/24 04:41:18;;;;;;;1.73;1.38;;;;;;;;;;5028140;28;20175;-46
2021/10/24 04:43:44;;;;;;;1.50;1.40;;;;;;;;;;5014363;28;20214;-46
2021/10/24 04:46:10;;;;;;;1.42;1.33;;;;;;;;;;5020776;28;20197;-46
2021/10/24 04:48:36;;;;;;;2.25;1.60;;;;;;;;;;5033642;28;20266;-46
2021/10/24 04:51:02;;;;;;;2.78;1.55;;;;;;;;;;5024773;28;20276;-46
2021/10/24 04:53:29;;;;;;;2.08;1.50;;;;;;;;;;5013947;28;20275;-46
2021/10/24 04:55:55;;;;;;;3.78;1.60;;;;;;;;;;5020386;28;20172;-46
2021/10/24 04:58:21;;;;;;;3.97;1.30;;;;;;;;;;5014971;28;20181;-46
2021/10/24 05:00:47;;;;;;;2.40;1.48;;;;;;;;;;5024268;28;20249;-46
2021/10/24 05:03:13;;;;;;;3.58;1.60;;;;;;;;;;5033241;28;20211;-46
2021/10/24 05:05:40;;;;;;;3.50;1.70;;;;;;;;;;5031827;28;20186;-46
2021/10/24 05:08:06;;;;;;;2.90;1.70;;;;;;;;;;5029724;28;20582;-46
2021/10/24 05:10:32;;;;;;;3.97;1.98;;;;;;;;;;5029138;28;20172;-46
2021/10/24 05:12:58;;;;;;;3.50;2.00;;;;;;;;;;5018804;28;20176;-46
2021/10/24 05:15:24;;;;;;;2.15;1.95;;;;;;;;;;5018577;28;20398;-46
2021/10/24 05:17:50;;;;;;;2.97;1.95;;;;;;;;;;5018825;28;20552;-46
2021/10/24 05:20:16;;;;;;;3.88;2.08;;;;;;;;;;5031512;28;20219;-46
2021/10/24 05:22:42;;;;;;;2.40;2.03;;;;;;;;;;5020708;28;20180;-46
2021/10/24 05:25:08;;;;;;;4.32;2.20;;;;;;;;;;5024596;28;20467;-46
2021/10/24 05:27:34;;;;;;;2.67;2.47;;;;;;;;;;5037254;28;20653;-46
2021/10/24 05:30:01;;;;;;;2.33;2.10;;;;;;;;;;5035253;28;20180;-46
2021/10/24 05:32:27;;;;;;;2.47;1.95;;;;;;;;;;5031256;28;20187;-46
2021/10/24 05:34:53;;;;;;;3.17;2.03;;;;;;;;;;5017744;28;20175;-46
2021/10/24 05:37:19;;;;;;;2.80;2.22;;;;;;;;;;5033197;28;20180;-46
2021/10/24 05:39:45;;;;;;;2.38;2.03;;;;;;;;;;5031351;28;20179;-46
2021/10/24 05:42:11;;;;;;;4.05;1.90;;;;;;;;;;5035817;28;20578;-46
2021/10/24 05:44:37;;;;;;;3.70;1.90;;;;;;;;;;5024744;28;20310;-46
2021/10/24 05:47:04;;;;;;;2.15;1.92;;;;;;;;;;5029781;28;20651;-46
2021/10/24 05:49:30;;;;;;;3.00;2.20;;;;;;;;;;5036739;28;20255;-46
2021/10/24 05:51:56;;;;;;;2.00;1.80;;;;;;;;;;5035848;28;20294;-46
2021/10/24 05:54:22;;;;;;;3.10;1.90;;;;;;;;;;5023866;28;20263;-47
2021/10/24 05:56:48;;;;;;;1.60;1.50;;;;;;;;;;5017852;28;20179;-46
2021/10/24 05:59:14;;;;;;;2.83;2.13;;;;;;;;;;5018087;28;20806;-46
2021/10/24 06:01:40;;;;;;;2.15;1.85;;;;;;;;;;5032966;28;20292;-46
2021/10/24 06:04:06;;;;;;;2.17;1.92;;;;;;;;;;5017580;28;20466;-46
2021/10/24 06:06:32;;;;;;;2.65;2.00;;;;;;;;;;5019989;28;20193;-47
2021/10/24 06:09:00;;;;;;;2.58;1.90;;;;;;;;;;5022206;28;20254;-46
2021/10/24 06:11:28;;;;;;;2.00;1.70;;;;;;;;;;5017800;28;20172;-46
2021/10/24 06:13:55;;;;;;;2.38;1.80;;;;;;;;;;5032756;28;20233;-46
2021/10/24 06:16:21;;;;;;;2.13;1.80;;;;;;;;;;5036362;28;20179;-46
2021/10/24 06:18:47;;;;;;;2.55;2.00;;;;;;;;;;5020054;28;20611;-46
2021/10/24 06:21:13;;;;;;;2.33;1.92;;;;;;;;;;5017236;28;20263;-46
2021/10/24 06:23:39;;;;;;;3.25;1.98;;;;;;;;;;5016599;28;20471;-46
2021/10/24 06:26:05;;;;;;;1.90;1.70;;;;;;;;;;5017133;28;20177;-46
2021/10/24 06:28:32;;;;;;;8.75;2.13;;;;;;;;;;5026553;28;20176;-46
2021/10/24 06:30:58;;;;;;;2.75;1.90;;;;;;;;;;5021215;28;20192;-46
2021/10/24 06:33:24;;;;;;;5.00;2.10;;;;;;;;;;5016612;28;20251;-46
2021/10/24 06:35:50;;;;;;;3.33;1.98;;;;;;;;;;5021308;28;20172;-46
2021/10/24 06:38:18;;;;;;;2.70;1.92;;;;;;;;;;5018154;28;20181;-46
2021/10/24 06:40:44;;;;;;;5.03;1.92;;;;;;;;;;5020715;28;20180;-47
2021/10/24 06:43:10;;;;;;;2.88;1.95;;;;;;;;;;5027282;28;20183;-46
2021/10/24 06:45:36;;;;;;;3.28;2.08;;;;;;;;;;5017028;28;20473;-46
2021/10/24 06:48:04;;;;;;;5.95;2.00;;;;;;;;;;5033879;28;20207;-46
2021/10/24 06:50:30;;;;;;;4.95;2.15;;;;;;;;;;5025505;28;20682;-46
2021/10/24 06:52:56;;;;;;;3.08;2.40;;;;;;;;;;5035254;28;20566;-46
2021/10/24 06:55:22;;;;;;;9.68;2.38;;;;;;;;;;5026640;28;20608;-46
2021/10/24 06:57:54;;;;;;;7.85;2.50;;;;;;;;;;5022064;28;20191;-46
2021/10/24 07:00:21;;;;;;;5.80;1.92;;;;;;;;;;5027620;28;20177;-46
2021/10/24 07:02:47;;;;;;;10.00;2.28;;;;;;;;;;5016360;28;20234;-46
2021/10/24 07:05:13;;;;;;;6.30;2.10;;;;;;;;;;5019081;28;20290;-46
2021/10/24 07:07:40;;;;;;;9.90;2.30;;;;;;;;;;5033603;28;20439;-47
2021/10/24 07:10:06;;;;;;;7.55;2.65;;;;;;;;;;5027449;28;20172;-42
2021/10/24 07:12:32;;;;;;;8.55;3.15;;;;;;;;;;5032891;28;20195;-44
2021/10/24 07:14:58;;;;;;;6.97;2.20;;;;;;;;;;5034130;28;20546;-43
2021/10/24 07:17:25;;;;;;;6.22;2.55;;;;;;;;;;5032446;28;20179;-44
2021/10/24 07:19:51;;;;;;;5.47;2.63;;;;;;;;;;5020536;28;20183;-42
2021/10/24 07:22:17;;;;;;;12.05;2.50;;;;;;;;;;5032096;28;20179;-44
2021/10/24 07:24:43;;;;;;;7.63;2.25;;;;;;;;;;5032491;28;20700;-47
2021/10/24 07:27:09;;;;;;;7.30;2.08;;;;;;;;;;5035037;28;20223;-47
2021/10/24 07:29:35;;;;;;;13.55;2.40;;;;;;;;;;5016488;28;20181;-44
2021/10/24 07:32:01;;;;;;;400.27;183.45;;;;;;;;;;5023638;28;20218;-46
2021/10/24 07:34:27;;;;;;;298.65;119.72;;;;;;;;;;5034982;28;20191;-46
2021/10/24 07:36:53;;;;;;;311.00;127.10;;;;;;;;;;5016717;28;20544;-48
2021/10/24 07:39:19;;;;;;;336.95;144.40;;;;;;;;;;5034729;28;20183;-46
2021/10/24 07:41:46;;;;;;;425.75;193.65;;;;;;;;;;5046975;28;20174;-44
2021/10/24 07:44:16;;;;;;;488.30;250.63;;;;;;;;;;5026249;28;20289;-45
2021/10/24 07:46:42;;;;;;;450.00;215.40;;;;;;;;;;5033016;28;20328;-45
2021/10/24 07:49:09;;;;;;;411.08;188.07;;;;;;;;;;5024083;28;21531;-45
2021/10/24 07:51:35;;;;;;;215.10;93.55;;;;;;;;;;5021276;28;20172;-44
2021/10/24 07:54:02;;;;;;;119.20;48.50;;;;;;;;;;5027587;28;20208;-44
2021/10/24 07:56:29;;;;;;;88.07;36.90;;;;;;;;;;5020566;28;20291;-44
2021/10/24 07:58:56;;;;;;;86.53;35.55;;;;;;;;;;5015476;28;20270;-44
2021/10/24 08:01:22;;;;;;;80.40;33.40;;;;;;;;;;5017356;28;20198;-44
2021/10/24 08:03:49;;;;;;;79.35;32.25;;;;;;;;;;5018894;28;20188;-44
2021/10/24 08:06:16;;;;;;;80.57;32.22;;;;;;;;;;5032941;28;20190;-44
2021/10/24 08:08:42;;;;;;;77.30;31.70;;;;;;;;;;5017740;28;20172;-44
2021/10/24 08:11:08;;;;;;;71.75;29.60;;;;;;;;;;5018435;28;20317;-44
2021/10/24 08:13:35;;;;;;;61.38;26.85;;;;;;;;;;5018628;28;20586;-44
2021/10/24 08:16:01;;;;;;;57.42;27.92;;;;;;;;;;5015126;28;20164;-44
2021/10/24 08:18:27;;;;;;;57.03;26.38;;;;;;;;;;5025874;28;20586;-44
2021/10/24 08:20:53;;;;;;;55.28;25.45;;;;;;;;;;5033428;28;20180;-44
2021/10/24 08:23:19;;;;;;;56.17;24.67;;;;;;;;;;5028974;28;20270;-44
2021/10/24 08:25:45;;;;;;;55.33;23.70;;;;;;;;;;5016931;28;20186;-44
2021/10/24 08:28:11;;;;;;;44.83;23.73;;;;;;;;;;5022691;28;20291;-44
2021/10/24 08:30:38;;;;;;;46.78;23.65;;;;;;;;;;5018702;28;20303;-44
2021/10/24 08:33:04;;;;;;;55.50;22.63;;;;;;;;;;5018329;28;20180;-45
2021/10/24 08:35:31;;;;;;;46.03;21.80;;;;;;;;;;5014827;28;20175;-44
2021/10/24 08:37:57;;;;;;;46.40;21.55;;;;;;;;;;5031166;28;20420;-45
2021/10/24 08:40:23;;;;;;;44.35;22.20;;;;;;;;;;5032344;28;20180;-44
2021/10/24 08:42:57;;;;;;;41.70;20.55;;;;;;;;;;5019095;28;20186;-44
2021/10/24 08:45:23;;;;;;;38.88;19.38;;;;;;;;;;5021500;28;20207;-44
2021/10/24 08:47:49;;;;;;;42.28;20.52;;;;;;;;;;5020599;28;20212;-44
2021/10/24 08:50:16;;;;;;;40.53;18.77;;;;;;;;;;5017988;28;20545;-44
2021/10/24 08:52:44;;;;;;;40.30;19.95;;;;;;;;;;5016858;28;20199;-44
2021/10/24 08:55:10;;;;;;;33.20;18.10;;;;;;;;;;5015643;28;20195;-44
2021/10/24 08:57:37;;;;;;;33.03;17.30;;;;;;;;;;5028484;28;20180;-44
2021/10/24 09:00:04;;;;;;;34.17;16.73;;;;;;;;;;5030956;28;20190;-44
2021/10/24 09:02:49;;;;;;;32.05;17.63;;;;;;;;;;5027885;28;20263;-44
2021/10/24 09:05:34;;;;;;;33.97;17.48;;;;;;;;;;5023851;28;20258;-44
2021/10/24 09:08:00;;;;;;;31.30;16.27;;;;;;;;;;5018484;28;20195;-44
2021/10/24 09:10:40;;;;;;;32.97;16.13;;;;;;;;;;5022900;28;20552;-44
2021/10/24 09:13:07;;;;;;;30.25;15.98;;;;;;;;;;5017159;28;20196;-44
2021/10/24 09:15:44;;;;;;;31.63;16.15;;;;;;;;;;5047432;28;20209;-44
2021/10/24 09:18:10;;;;;;;32.67;16.02;;;;;;;;;;5025622;28;20174;-44
2021/10/24 09:20:36;;;;;;;28.73;15.25;;;;;;;;;;5033575;28;20186;-44
2021/10/24 09:23:06;;;;;;;31.90;16.08;;;;;;;;;;5014236;28;20269;-44
2021/10/24 09:25:32;;;;;;;28.38;15.02;;;;;;;;;;5014535;28;20415;-44
2021/10/24 09:28:00;;;;;;;28.75;15.48;;;;;;;;;;5020418;28;20204;-44
2021/10/24 09:30:27;;;;;;;29.02;15.27;;;;;;;;;;5016501;28;20200;-44
2021/10/24 09:32:55;;;;;;;24.27;13.05;;;;;;;;;;5023154;28;20177;-44
2021/10/24 09:35:22;;;;;;;23.65;13.05;;;;;;;;;;5023666;28;20168;-44
2021/10/24 09:37:48;;;;;;;25.70;13.32;;;;;;;;;;5022109;28;20184;-44
2021/10/24 09:40:15;;;;;;;28.75;13.70;;;;;;;;;;5034208;28;20448;-44
2021/10/24 09:42:42;;;;;;;24.30;12.80;;;;;;;;;;5023901;28;20199;-44
2021/10/24 09:45:09;;;;;;;25.83;12.55;;;;;;;;;;5015430;28;20237;-44
2021/10/24 09:47:45;;;;;;;29.65;14.02;;;;;;;;;;5022774;28;20208;-44
2021/10/24 09:50:28;;;;;;;23.67;13.07;;;;;;;;;;5018035;28;20160;-44
2021/10/24 09:52:55;;;;;;;22.00;11.10;;;;;;;;;;5018174;28;20484;-44
2021/10/24 09:55:21;;;;;;;27.65;12.07;;;;;;;;;;5033758;28;20192;-44
2021/10/24 09:57:47;;;;;;;21.27;11.25;;;;;;;;;;5033455;28;20223;-44
2021/10/24 10:00:13;;;;;;;22.08;11.65;;;;;;;;;;5021422;28;20284;-44
2021/10/24 10:02:41;;;;;;;22.55;11.52;;;;;;;;;;5018527;28;20531;-44
2021/10/24 10:05:08;;;;;;;21.48;11.30;;;;;;;;;;5019037;28;20272;-44
2021/10/24 10:07:34;;;;;;;20.15;10.38;;;;;;;;;;5027022;28;20651;-44
2021/10/24 10:10:01;;;;;;;20.60;10.88;;;;;;;;;;5024906;28;20263;-44
2021/10/24 10:12:30;;;;;;;24.60;11.70;;;;;;;;;;5033352;28;20210;-44
2021/10/24 10:15:00;;;;;;;19.23;10.15;;;;;;;;;;5036415;28;20251;-44
2021/10/24 10:17:26;;;;;;;21.17;10.40;;;;;;;;;;5029049;28;20268;-44
2021/10/24 10:19:52;;;;;;;20.52;10.40;;;;;;;;;;5028472;28;20633;-44
2021/10/24 10:22:24;;;;;;;18.58;10.68;;;;;;;;;;5028132;28;20183;-44
2021/10/24 10:25:00;;;;;;;23.50;11.45;;;;;;;;;;5020792;28;20220;-44
2021/10/24 10:27:29;;;;;;;21.65;11.35;;;;;;;;;;5021000;28;20761;-44
2021/10/24 10:29:57;;;;;;;17.85;9.35;;;;;;;;;;5026643;28;20234;-45
2021/10/24 10:32:32;;;;;;;18.33;9.93;;;;;;;;;;5022725;28;20169;-45
2021/10/24 10:34:58;;;;;;;21.15;10.23;;;;;;;;;;5016710;28;20563;-45
2021/10/24 10:37:39;;;;;;;17.50;9.55;;;;;;;;;;5028687;28;20176;-44
2021/10/24 10:40:12;;;;;;;16.50;9.82;;;;;;;;;;5031678;28;20184;-44
2021/10/24 10:42:42;;;;;;;16.33;9.25;;;;;;;;;;5023885;28;20498;-45
2021/10/24 10:45:17;;;;;;;16.08;9.10;;;;;;;;;;5016412;28;20180;-44
2021/10/24 10:47:53;;;;;;;18.63;9.63;;;;;;;;;;5024549;28;20587;-44
2021/10/24 10:50:28;;;;;;;23.10;14.38;;;;;;;;;;5031050;28;20561;-44
2021/10/24 10:52:55;;;;;;;21.20;12.57;;;;;;;;;;5031124;28;20175;-44
2021/10/24 10:55:22;;;;;;;18.33;10.93;;;;;;;;;;5016935;28;20207;-46
2021/10/24 10:57:48;;;;;;;19.05;10.07;;;;;;;;;;5033207;28;20195;-44
2021/10/24 11:00:33;;;;;;;17.75;10.18;;;;;;;;;;5034446;28;20244;-44
2021/10/24 11:02:59;;;;;;;17.35;8.98;;;;;;;;;;5025323;28;20292;-44
2021/10/24 11:05:33;;;;;;;16.25;9.82;;;;;;;;;;5026758;28;20499;-44
2021/10/24 11:07:59;;;;;;;14.35;8.80;;;;;;;;;;5025433;28;20471;-45
2021/10/24 11:10:43;;;;;;;16.92;8.60;;;;;;;;;;5023049;28;20251;-44
2021/10/24 11:13:35;;;;;;;15.73;8.57;;;;;;;;;;5017328;28;20383;-44
2021/10/24 11:19:24;;;;;;;14.07;7.55;;;;;;;;;;5018911;28;20156;-44
2021/10/24 11:21:51;;;;;;;14.07;7.90;;;;;;;;;;5018658;28;20214;-44
2021/10/24 11:24:17;;;;;;;17.23;8.43;;;;;;;;;;5018316;28;20173;-44
2021/10/24 11:26:44;;;;;;;14.18;7.40;;;;;;;;;;5018363;28;20250;-45
2021/10/24 11:29:10;;;;;;;14.52;7.05;;;;;;;;;;5018492;28;20169;-44
2021/10/24 11:31:36;;;;;;;12.35;7.72;;;;;;;;;;5018414;28;20173;-44
2021/10/24 11:34:04;;;;;;;11.23;6.72;;;;;;;;;;5018085;28;20164;-44
2021/10/24 11:36:30;;;;;;;12.00;7.30;;;;;;;;;;5017018;28;20192;-44
2021/10/24 11:38:57;;;;;;;11.95;6.82;;;;;;;;;;5015951;28;20169;-44
2021/10/24 11:41:24;;;;;;;12.25;6.80;;;;;;;;;;5017320;28;20544;-44
2021/10/24 11:43:51;;;;;;;12.27;6.68;;;;;;;;;;5017456;28;20231;-44
2021/10/24 11:46:17;;;;;;;10.05;6.47;;;;;;;;;;5032455;28;20267;-44
2021/10/24 11:48:43;;;;;;;10.57;6.55;;;;;;;;;;5030512;28;20271;-44
2021/10/24 11:51:12;;;;;;;13.60;7.15;;;;;;;;;;5035553;28;20168;-44
2021/10/24 11:53:39;;;;;;;10.93;6.90;;;;;;;;;;5024547;28;20183;-44
2021/10/24 11:56:17;;;;;;;9.70;6.60;;;;;;;;;;5019377;28;20256;-45
2021/10/24 12:01:29;;;;;;;13.68;6.25;;;;;;;;;;5015550;28;20203;-44
2021/10/24 12:03:58;;;;;;;8.75;5.47;;;;;;;;;;5015067;28;20180;-44
2021/10/24 12:06:43;;;;;;;10.25;5.38;;;;;;;;;;5032386;28;20191;-44
2021/10/24 12:09:13;;;;;;;10.63;5.90;;;;;;;;;;5033044;28;20543;-44
2021/10/24 12:11:45;;;;;;;9.93;5.55;;;;;;;;;;5034658;28;20207;-44
2021/10/24 12:14:14;;;;;;;10.68;5.30;;;;;;;;;;5015056;28;20169;-44
2021/10/24 12:16:45;;;;;;;10.27;5.43;;;;;;;;;;5034171;28;20237;-44
2021/10/24 12:19:11;;;;;;;9.23;5.82;;;;;;;;;;5015815;28;20246;-44
2021/10/24 12:21:38;;;;;;;11.80;5.90;;;;;;;;;;5015416;28;20199;-44
2021/10/24 12:24:14;;;;;;;7.47;4.95;;;;;;;;;;5025701;28;20195;-44
2021/10/24 12:26:40;;;;;;;9.75;5.30;;;;;;;;;;5034706;28;20211;-44
2021/10/24 12:29:13;;;;;;;8.95;5.78;;;;;;;;;;5017927;28;20227;-44
2021/10/24 12:31:40;;;;;;;9.85;5.88;;;;;;;;;;5015311;28;20506;-44
2021/10/24 12:34:11;;;;;;;10.15;5.60;;;;;;;;;;5021314;28;20187;-44
2021/10/24 12:36:39;;;;;;;7.45;5.28;;;;;;;;;;5022687;28;20192;-44
2021/10/24 12:39:06;;;;;;;8.30;5.05;;;;;;;;;;5033717;28;20175;-44
2021/10/24 12:41:38;;;;;;;8.68;5.32;;;;;;;;;;5015157;28;20192;-44
2021/10/24 12:44:14;;;;;;;7.80;4.68;;;;;;;;;;5025878;28;20186;-44
2021/10/24 12:46:41;;;;;;;8.70;4.95;;;;;;;;;;5034357;28;20234;-44
2021/10/24 12:49:16;;;;;;;7.93;4.80;;;;;;;;;;5026107;28;20190;-44
2021/10/24 12:51:43;;;;;;;8.85;5.00;;;;;;;;;;5027519;28;20247;-44
2021/10/24 12:54:10;;;;;;;7.15;4.68;;;;;;;;;;5020693;28;20196;-44
2021/10/24 12:56:38;;;;;;;8.73;4.60;;;;;;;;;;5014833;28;20186;-44
2021/10/24 12:59:04;;;;;;;6.97;4.43;;;;;;;;;;5034348;28;20864;-44
2021/10/24 13:01:34;;;;;;;7.43;4.82;;;;;;;;;;5034391;28;20183;-44
2021/10/24 13:04:01;;;;;;;7.70;4.30;;;;;;;;;;5020526;28;20188;-44
2021/10/24 13:06:29;;;;;;;7.72;4.65;;;;;;;;;;5014890;28;20169;-44
2021/10/24 13:08:56;;;;;;;6.68;4.63;;;;;;;;;;5015182;28;20876;-44
2021/10/24 13:11:22;;;;;;;6.60;4.30;;;;;;;;;;5033123;28;20172;-44
2021/10/24 13:13:49;;;;;;;6.22;4.40;;;;;;;;;;5019118;28;20458;-44
2021/10/24 13:16:15;;;;;;;6.20;4.15;;;;;;;;;;5014508;28;20171;-44
2021/10/24 13:18:42;;;;;;;6.60;4.18;;;;;;;;;;5014943;28;20253;-44
2021/10/24 13:22:53;;;;;;;8.15;4.28;;;;;;;;;;5014682;28;20172;-44
2021/10/24 13:23:58;;;;;;;4.80;3.47;;;;;;;;;;5023708;28;20199;-44
2021/10/24 13:26:24;;;;;;;6.15;4.07;;;;;;;;;;5018189;28;20184;-44
2021/10/24 13:28:50;;;;;;;7.25;4.22;;;;;;;;;;5018294;28;20408;-44
2021/10/24 13:31:16;;;;;;;7.82;4.00;;;;;;;;;;5025884;28;20190;-44
2021/10/24 13:33:42;;;;;;;7.00;4.00;;;;;;;;;;5029032;28;20234;-44
2021/10/24 13:36:08;;;;;;;5.25;3.80;;;;;;;;;;5027523;28;20618;-44
2021/10/24 13:38:34;;;;;;;5.95;3.78;;;;;;;;;;5028805;28;20184;-44
2021/10/24 13:41:00;;;;;;;6.18;4.20;;;;;;;;;;5018414;28;20704;-44
2021/10/24 13:43:27;;;;;;;5.03;3.67;;;;;;;;;;5031966;28;20187;-44
2021/10/24 13:45:53;;;;;;;4.97;3.55;;;;;;;;;;5037726;28;20204;-44
2021/10/24 13:48:21;;;;;;;6.20;4.32;;;;;;;;;;5035331;28;20215;-44
2021/10/24 13:50:47;;;;;;;5.43;3.80;;;;;;;;;;5037759;28;20175;-44
2021/10/24 13:53:13;;;;;;;5.35;3.70;;;;;;;;;;5028316;28;20488;-44
2021/10/24 13:55:39;;;;;;;4.35;3.30;;;;;;;;;;5037506;28;20182;-44
2021/10/24 13:58:06;;;;;;;6.03;3.90;;;;;;;;;;5036873;28;20211;-44
2021/10/24 14:00:32;;;;;;;4.95;3.53;;;;;;;;;;5018005;28;20180;-44
2021/10/24 14:03:02;;;;;;;4.13;3.00;;;;;;;;;;5026479;28;20184;-44
2021/10/24 14:05:29;;;;;;;5.22;3.70;;;;;;;;;;5037550;28;20451;-44
2021/10/24 14:08:00;;;;;;;4.07;3.45;;;;;;;;;;5027384;28;20648;-44
2021/10/24 14:10:26;;;;;;;5.00;3.50;;;;;;;;;;5027395;28;20192;-44
2021/10/24 14:12:53;;;;;;;5.05;3.42;;;;;;;;;;5036383;28;20175;-44
2021/10/24 14:15:19;;;;;;;5.38;3.38;;;;;;;;;;5017612;28;20218;-44
2021/10/24 14:17:47;;;;;;;4.18;2.78;;;;;;;;;;5017535;28;20193;-44
2021/10/24 14:20:13;;;;;;;4.78;3.00;;;;;;;;;;5017643;28;20200;-44
2021/10/24 14:22:40;;;;;;;4.20;3.08;;;;;;;;;;5019643;28;20576;-44
2021/10/24 14:25:07;;;;;;;4.43;3.08;;;;;;;;;;5035331;28;20278;-44
2021/10/24 14:27:33;;;;;;;4.05;2.95;;;;;;;;;;5036441;28;20204;-44
2021/10/24 14:29:59;;;;;;;3.90;3.05;;;;;;;;;;5037221;28;20427;-44
2021/10/24 14:32:25;;;;;;;3.75;2.80;;;;;;;;;;5030268;28;20188;-44
2021/10/24 14:34:52;;;;;;;3.72;3.10;;;;;;;;;;5020231;28;20165;-44
2021/10/24 14:37:18;;;;;;;5.03;3.20;;;;;;;;;;5017941;28;20448;-44
2021/10/24 14:39:44;;;;;;;5.65;3.47;;;;;;;;;;5017134;28;20274;-44
2021/10/24 14:42:10;;;;;;;3.88;3.00;;;;;;;;;;5020918;28;20183;-44